Terminal Aerodrome Forecast
Issued by NWS Cleveland, OH

Home | Current Version | Previous Version | Text Only | Print | Product List | Glossary On
Versions: 1 2 3 4 5 6 7 8 9 10 11 12 13 14
156
FTUS41 KCLE 270520
TAFMFD
TAF
KMFD 270520Z 2706/2806 22007KT P6SM SKC
     FM271600 23015G25KT P6SM SCT050=

USA.gov is the U.S. government's official web portal to all federal, state and local government web resources and services.